sensor_id;sensor_type;location;lat;lon;timestamp;pressure;altitude;pressure_sealevel;temperature;humidity
19208;BME280;9737;59.466;18.036;2023-02-18T00:01:27;98288.41;;;4.25;84.80
19208;BME280;9737;59.466;18.036;2023-02-18T00:03:56;98291.75;;;4.27;84.33
19208;BME280;9737;59.466;18.036;2023-02-18T00:06:26;98295.09;;;4.29;84.49
19208;BME280;9737;59.466;18.036;2023-02-18T00:08:55;98284.69;;;4.27;84.55
19208;BME280;9737;59.466;18.036;2023-02-18T00:11:25;98300.50;;;4.27;84.63
19208;BME280;9737;59.466;18.036;2023-02-18T00:13:55;98297.72;;;4.29;84.80
19208;BME280;9737;59.466;18.036;2023-02-18T00:16:28;98282.31;;;4.24;84.82
19208;BME280;9737;59.466;18.036;2023-02-18T00:18:57;98276.22;;;4.24;84.54
19208;BME280;9737;59.466;18.036;2023-02-18T00:21:25;98251.50;;;4.15;84.83
19208;BME280;9737;59.466;18.036;2023-02-18T00:23:54;98257.34;;;4.19;84.86
19208;BME280;9737;59.466;18.036;2023-02-18T00:26:22;98246.25;;;4.15;84.56
19208;BME280;9737;59.466;18.036;2023-02-18T00:28:51;98234.91;;;4.15;84.80
19208;BME280;9737;59.466;18.036;2023-02-18T00:31:22;98240.16;;;4.15;84.56
19208;BME280;9737;59.466;18.036;2023-02-18T00:33:53;98241.38;;;4.11;84.39
19208;BME280;9737;59.466;18.036;2023-02-18T00:36:21;98207.91;;;4.01;84.67
19208;BME280;9737;59.466;18.036;2023-02-18T00:38:51;98211.97;;;4.06;84.75
19208;BME280;9737;59.466;18.036;2023-02-18T00:41:21;98199.06;;;4.02;84.79
19208;BME280;9737;59.466;18.036;2023-02-18T00:43:49;98183.53;;;3.99;85.12
19208;BME280;9737;59.466;18.036;2023-02-18T00:46:17;98170.75;;;3.95;84.60
19208;BME280;9737;59.466;18.036;2023-02-18T00:48:45;98159.53;;;3.93;84.94
19208;BME280;9737;59.466;18.036;2023-02-18T00:51:14;98147.47;;;3.90;84.60
19208;BME280;9737;59.466;18.036;2023-02-18T00:53:42;98116.69;;;3.81;85.08
19208;BME280;9737;59.466;18.036;2023-02-18T00:56:10;98128.88;;;3.82;84.63
19208;BME280;9737;59.466;18.036;2023-02-18T00:58:38;98102.00;;;3.79;84.97
19208;BME280;9737;59.466;18.036;2023-02-18T01:01:08;98099.50;;;3.77;84.85
19208;BME280;9737;59.466;18.036;2023-02-18T01:03:36;98109.06;;;3.78;85.08
19208;BME280;9737;59.466;18.036;2023-02-18T01:06:05;98080.34;;;3.75;84.78
19208;BME280;9737;59.466;18.036;2023-02-18T01:08:36;98042.91;;;3.62;84.69
19208;BME280;9737;59.466;18.036;2023-02-18T01:11:05;98025.75;;;3.58;84.84
19208;BME280;9737;59.466;18.036;2023-02-18T01:13:34;98012.16;;;3.53;85.00
19208;BME280;9737;59.466;18.036;2023-02-18T01:16:02;97972.78;;;3.41;85.07
19208;BME280;9737;59.466;18.036;2023-02-18T01:18:31;97955.34;;;3.40;84.84
19208;BME280;9737;59.466;18.036;2023-02-18T01:20:59;97923.06;;;3.29;84.88
19208;BME280;9737;59.466;18.036;2023-02-18T01:23:28;97897.19;;;3.24;84.80
19208;BME280;9737;59.466;18.036;2023-02-18T01:25:57;97863.09;;;3.13;84.74
19208;BME280;9737;59.466;18.036;2023-02-18T01:28:25;97820.19;;;3.03;84.90
19208;BME280;9737;59.466;18.036;2023-02-18T01:30:53;97773.72;;;2.94;85.14
19208;BME280;9737;59.466;18.036;2023-02-18T01:33:21;97760.13;;;2.89;85.20
19208;BME280;9737;59.466;18.036;2023-02-18T01:35:51;97744.50;;;2.87;84.82
19208;BME280;9737;59.466;18.036;2023-02-18T01:38:19;97730.94;;;2.82;85.09
19208;BME280;9737;59.466;18.036;2023-02-18T01:40:50;97709.63;;;2.75;85.00
19208;BME280;9737;59.466;18.036;2023-02-18T01:43:20;97690.00;;;2.70;84.95
19208;BME280;9737;59.466;18.036;2023-02-18T01:45:54;97635.91;;;2.58;85.01
19208;BME280;9737;59.466;18.036;2023-02-18T01:48:25;97607.72;;;2.50;84.96
19208;BME280;9737;59.466;18.036;2023-02-18T01:50:59;97549.53;;;2.35;84.99
19208;BME280;9737;59.466;18.036;2023-02-18T01:53:38;97554.66;;;2.37;85.10
19208;BME280;9737;59.466;18.036;2023-02-18T01:56:12;97547.75;;;2.36;84.93
19208;BME280;9737;59.466;18.036;2023-02-18T01:58:42;97516.34;;;2.25;84.63
19208;BME280;9737;59.466;18.036;2023-02-18T02:01:11;97485.28;;;2.20;85.12
19208;BME280;9737;59.466;18.036;2023-02-18T02:03:39;97466.63;;;2.13;84.99
19208;BME280;9737;59.466;18.036;2023-02-18T02:06:14;97422.84;;;2.04;85.15
19208;BME280;9737;59.466;18.036;2023-02-18T02:08:43;97393.84;;;1.96;85.40
19208;BME280;9737;59.466;18.036;2023-02-18T02:11:21;97390.78;;;1.91;84.99
19208;BME280;9737;59.466;18.036;2023-02-18T02:14:05;97387.91;;;1.94;85.00
19208;BME280;9737;59.466;18.036;2023-02-18T02:16:42;97362.09;;;1.90;85.04
19208;BME280;9737;59.466;18.036;2023-02-18T02:19:28;97375.06;;;1.91;85.02
19208;BME280;9737;59.466;18.036;2023-02-18T02:22:28;97362.22;;;1.88;84.89
19208;BME280;9737;59.466;18.036;2023-02-18T02:25:11;97328.97;;;1.79;85.10
19208;BME280;9737;59.466;18.036;2023-02-18T02:31:02;97296.25;;;1.73;85.18
19208;BME280;9737;59.466;18.036;2023-02-18T02:33:45;97299.84;;;1.72;85.06
19208;BME280;9737;59.466;18.036;2023-02-18T02:36:21;97273.22;;;1.67;85.05
19208;BME280;9737;59.466;18.036;2023-02-18T02:38:55;97276.78;;;1.66;85.16
19208;BME280;9737;59.466;18.036;2023-02-18T02:41:35;97228.25;;;1.52;85.06
19208;BME280;9737;59.466;18.036;2023-02-18T02:44:12;97188.91;;;1.43;85.00
19208;BME280;9737;59.466;18.036;2023-02-18T02:46:47;97156.53;;;1.34;84.95
19208;BME280;9737;59.466;18.036;2023-02-18T02:49:27;97150.47;;;1.34;85.17
19208;BME280;9737;59.466;18.036;2023-02-18T02:52:03;97154.88;;;1.33;85.37
19208;BME280;9737;59.466;18.036;2023-02-18T02:54:32;97153.78;;;1.36;85.20
19208;BME280;9737;59.466;18.036;2023-02-18T02:57:05;97145.22;;;1.34;84.90
19208;BME280;9737;59.466;18.036;2023-02-18T02:59:36;97127.59;;;1.26;85.05
19208;BME280;9737;59.466;18.036;2023-02-18T03:02:21;97147.28;;;1.30;85.28
19208;BME280;9737;59.466;18.036;2023-02-18T03:04:59;97159.97;;;1.35;85.07
19208;BME280;9737;59.466;18.036;2023-02-18T03:10:44;97171.00;;;1.38;85.23
19208;BME280;9737;59.466;18.036;2023-02-18T03:13:20;97154.88;;;1.33;85.19
19208;BME280;9737;59.466;18.036;2023-02-18T03:15:54;97142.75;;;1.32;85.04
19208;BME280;9737;59.466;18.036;2023-02-18T03:18:31;97159.84;;;1.36;85.24
19208;BME280;9737;59.466;18.036;2023-02-18T03:21:05;97161.75;;;1.34;85.27
19208;BME280;9737;59.466;18.036;2023-02-18T03:23:40;97131.16;;;1.25;84.98
19208;BME280;9737;59.466;18.036;2023-02-18T03:26:11;97140.13;;;1.32;85.26
19208;BME280;9737;59.466;18.036;2023-02-18T03:28:43;97161.75;;;1.34;85.14
19208;BME280;9737;59.466;18.036;2023-02-18T03:31:15;97155.69;;;1.34;85.17
19208;BME280;9737;59.466;18.036;2023-02-18T03:33:48;97147.97;;;1.32;85.20
19208;BME280;9737;59.466;18.036;2023-02-18T03:36:20;97164.25;;;1.36;85.19
19208;BME280;9737;59.466;18.036;2023-02-18T03:38:53;97134.19;;;1.30;85.17
19208;BME280;9737;59.466;18.036;2023-02-18T03:41:23;97109.53;;;1.23;85.17
19208;BME280;9737;59.466;18.036;2023-02-18T03:43:51;97106.09;;;1.22;85.07
19208;BME280;9737;59.466;18.036;2023-02-18T03:46:19;97104.44;;;1.21;85.27
19208;BME280;9737;59.466;18.036;2023-02-18T03:48:47;97077.94;;;1.15;85.03
19208;BME280;9737;59.466;18.036;2023-02-18T03:51:16;97077.00;;;1.16;85.22
19208;BME280;9737;59.466;18.036;2023-02-18T03:53:45;97066.09;;;1.11;85.24
19208;BME280;9737;59.466;18.036;2023-02-18T03:56:14;97052.59;;;1.06;85.32
19208;BME280;9737;59.466;18.036;2023-02-18T03:58:42;97049.03;;;1.07;84.82
19208;BME280;9737;59.466;18.036;2023-02-18T04:01:10;97038.81;;;1.04;85.50
19208;BME280;9737;59.466;18.036;2023-02-18T04:03:38;97051.38;;;1.10;85.09
19208;BME280;9737;59.466;18.036;2023-02-18T04:06:07;97042.13;;;1.06;84.85
19208;BME280;9737;59.466;18.036;2023-02-18T04:08:36;97036.22;;;1.04;85.07
19208;BME280;9737;59.466;18.036;2023-02-18T04:11:04;97049.03;;;1.07;85.40
19208;BME280;9737;59.466;18.036;2023-02-18T04:13:34;97037.84;;;1.05;85.14
19208;BME280;9737;59.466;18.036;2023-02-18T04:16:01;97049.03;;;1.07;85.38
19208;BME280;9737;59.466;18.036;2023-02-18T04:18:29;97051.50;;;1.08;85.46
19208;BME280;9737;59.466;18.036;2023-02-18T04:20:57;97067.75;;;1.12;85.05
19208;BME280;9737;59.466;18.036;2023-02-18T04:23:26;97044.59;;;1.07;85.00
19208;BME280;9737;59.466;18.036;2023-02-18T04:25:53;97054.81;;;1.10;85.34
19208;BME280;9737;59.466;18.036;2023-02-18T04:28:21;97069.41;;;1.13;84.93
19208;BME280;9737;59.466;18.036;2023-02-18T04:30:50;97057.28;;;1.12;85.25
19208;BME280;9737;59.466;18.036;2023-02-18T04:33:18;97058.38;;;1.09;85.29
19208;BME280;9737;59.466;18.036;2023-02-18T04:35:46;97063.63;;;1.09;85.50
19208;BME280;9737;59.466;18.036;2023-02-18T04:38:14;97066.94;;;1.11;85.35
19208;BME280;9737;59.466;18.036;2023-02-18T04:40:42;97067.06;;;1.10;84.98
19208;BME280;9737;59.466;18.036;2023-02-18T04:43:10;97070.09;;;1.15;85.21
19208;BME280;9737;59.466;18.036;2023-02-18T04:45:38;97073.69;;;1.14;85.41
19208;BME280;9737;59.466;18.036;2023-02-18T04:48:07;97061.69;;;1.11;84.96
19208;BME280;9737;59.466;18.036;2023-02-18T04:50:35;97085.69;;;1.16;85.22
19208;BME280;9737;59.466;18.036;2023-02-18T04:53:03;97059.91;;;1.12;85.61
19208;BME280;9737;59.466;18.036;2023-02-18T04:55:30;97079.63;;;1.16;85.42
19208;BME280;9737;59.466;18.036;2023-02-18T04:57:58;97071.06;;;1.14;85.37
19208;BME280;9737;59.466;18.036;2023-02-18T05:00:26;97090.09;;;1.16;85.52
19208;BME280;9737;59.466;18.036;2023-02-18T05:02:54;97090.09;;;1.16;85.16
19208;BME280;9737;59.466;18.036;2023-02-18T05:05:24;97081.28;;;1.17;85.38
19208;BME280;9737;59.466;18.036;2023-02-18T05:07:51;97106.22;;;1.21;85.34
19208;BME280;9737;59.466;18.036;2023-02-18T05:10:19;97086.25;;;1.20;85.35
19208;BME280;9737;59.466;18.036;2023-02-18T05:12:47;97091.75;;;1.17;85.45
19208;BME280;9737;59.466;18.036;2023-02-18T05:15:15;97086.53;;;1.17;85.38
19208;BME280;9737;59.466;18.036;2023-02-18T05:17:43;97092.44;;;1.19;85.21
19208;BME280;9737;59.466;18.036;2023-02-18T05:20:11;97116.41;;;1.24;85.62
19208;BME280;9737;59.466;18.036;2023-02-18T05:22:41;97101.94;;;1.20;85.09
19208;BME280;9737;59.466;18.036;2023-02-18T05:25:09;97086.63;;;1.15;85.27
19208;BME280;9737;59.466;18.036;2023-02-18T05:27:37;97096.03;;;1.18;85.22
19208;BME280;9737;59.466;18.036;2023-02-18T05:30:06;97086.53;;;1.17;85.46
19208;BME280;9737;59.466;18.036;2023-02-18T05:32:34;97074.50;;;1.14;85.54
19208;BME280;9737;59.466;18.036;2023-02-18T05:35:01;97090.09;;;1.16;85.16
19208;BME280;9737;59.466;18.036;2023-02-18T05:37:29;97089.13;;;1.17;85.54
19208;BME280;9737;59.466;18.036;2023-02-18T05:39:58;97095.88;;;1.19;85.48
19208;BME280;9737;59.466;18.036;2023-02-18T05:42:26;97103.59;;;1.21;85.52
19208;BME280;9737;59.466;18.036;2023-02-18T05:44:54;97076.06;;;1.17;85.60
19208;BME280;9737;59.466;18.036;2023-02-18T05:47:22;97094.25;;;1.18;85.63
19208;BME280;9737;59.466;18.036;2023-02-18T05:49:50;97112.16;;;1.23;85.15
19208;BME280;9737;59.466;18.036;2023-02-18T05:52:17;97124.28;;;1.24;85.44
19208;BME280;9737;59.466;18.036;2023-02-18T05:54:47;97122.34;;;1.26;85.67
19208;BME280;9737;59.466;18.036;2023-02-18T05:57:16;97123.31;;;1.25;85.37
19208;BME280;9737;59.466;18.036;2023-02-18T05:59:44;97125.09;;;1.24;85.41
19208;BME280;9737;59.466;18.036;2023-02-18T06:02:12;97122.34;;;1.26;85.30
19208;BME280;9737;59.466;18.036;2023-02-18T06:04:40;97099.72;;;1.15;85.70
19208;BME280;9737;59.466;18.036;2023-02-18T06:07:08;97108.84;;;1.21;85.25
19208;BME280;9737;59.466;18.036;2023-02-18T06:09:36;97102.91;;;1.19;85.62
19208;BME280;9737;59.466;18.036;2023-02-18T06:12:04;97110.50;;;1.22;85.40
19208;BME280;9737;59.466;18.036;2023-02-18T06:14:33;97095.06;;;1.19;85.58
19208;BME280;9737;59.466;18.036;2023-02-18T06:17:01;97101.94;;;1.20;85.72
19208;BME280;9737;59.466;18.036;2023-02-18T06:19:29;97095.06;;;1.19;85.58
19208;BME280;9737;59.466;18.036;2023-02-18T06:21:57;97105.25;;;1.22;85.72
19208;BME280;9737;59.466;18.036;2023-02-18T06:24:25;97117.38;;;1.23;85.50
19208;BME280;9737;59.466;18.036;2023-02-18T06:26:53;97112.16;;;1.23;85.60
19208;BME280;9737;59.466;18.036;2023-02-18T06:29:20;97115.59;;;1.23;85.64
19208;BME280;9737;59.466;18.036;2023-02-18T06:31:50;97127.59;;;1.26;85.44
19208;BME280;9737;59.466;18.036;2023-02-18T06:34:18;97114.78;;;1.23;85.76
19208;BME280;9737;59.466;18.036;2023-02-18T06:36:46;97112.16;;;1.23;85.70
19208;BME280;9737;59.466;18.036;2023-02-18T06:39:14;97125.09;;;1.24;85.41
19208;BME280;9737;59.466;18.036;2023-02-18T06:41:41;97141.09;;;1.31;85.48
19208;BME280;9737;59.466;18.036;2023-02-18T06:44:09;97143.03;;;1.29;85.50
19208;BME280;9737;59.466;18.036;2023-02-18T06:46:37;97161.75;;;1.34;85.52
19208;BME280;9737;59.466;18.036;2023-02-18T06:49:07;97146.31;;;1.31;85.62
19208;BME280;9737;59.466;18.036;2023-02-18T06:51:34;97159.84;;;1.36;85.75
19208;BME280;9737;59.466;18.036;2023-02-18T06:54:03;97168.09;;;1.32;85.72
19208;BME280;9737;59.466;18.036;2023-02-18T06:56:32;97180.50;;;1.39;85.50
19208;BME280;9737;59.466;18.036;2023-02-18T06:59:00;97188.09;;;1.42;85.65
19208;BME280;9737;59.466;18.036;2023-02-18T07:01:30;97179.41;;;1.42;85.71
19208;BME280;9737;59.466;18.036;2023-02-18T07:03:58;97194.75;;;1.46;85.67
19208;BME280;9737;59.466;18.036;2023-02-18T07:06:27;97194.88;;;1.45;85.69
19208;BME280;9737;59.466;18.036;2023-02-18T07:08:55;97202.59;;;1.46;85.53
19208;BME280;9737;59.466;18.036;2023-02-18T07:11:23;97208.53;;;1.48;85.40
19208;BME280;9737;59.466;18.036;2023-02-18T07:13:51;97194.75;;;1.46;85.65
19208;BME280;9737;59.466;18.036;2023-02-18T07:16:21;97215.69;;;1.46;85.79
19208;BME280;9737;59.466;18.036;2023-02-18T07:18:49;97220.66;;;1.49;85.40
19208;BME280;9737;59.466;18.036;2023-02-18T07:21:17;97225.63;;;1.52;85.57
19208;BME280;9737;59.466;18.036;2023-02-18T07:23:46;97233.50;;;1.52;85.50
19208;BME280;9737;59.466;18.036;2023-02-18T07:26:14;97236.78;;;1.54;85.44
19208;BME280;9737;59.466;18.036;2023-02-18T07:28:42;97223.00;;;1.52;85.92
19208;BME280;9737;59.466;18.036;2023-02-18T07:31:10;97248.66;;;1.59;85.58
19208;BME280;9737;59.466;18.036;2023-02-18T07:33:38;97258.03;;;1.61;85.65
19208;BME280;9737;59.466;18.036;2023-02-18T07:36:07;97255.56;;;1.60;85.92
19208;BME280;9737;59.466;18.036;2023-02-18T07:38:35;97273.63;;;1.63;85.65
19208;BME280;9737;59.466;18.036;2023-02-18T07:41:05;97295.69;;;1.70;85.79
19208;BME280;9737;59.466;18.036;2023-02-18T07:43:33;97301.91;;;1.69;85.89
19208;BME280;9737;59.466;18.036;2023-02-18T07:46:04;97281.22;;;1.66;85.82
19208;BME280;9737;59.466;18.036;2023-02-18T07:48:33;97289.75;;;1.68;85.66
19208;BME280;9737;59.466;18.036;2023-02-18T07:51:05;97284.53;;;1.68;85.49
19208;BME280;9737;59.466;18.036;2023-02-18T07:53:32;97310.44;;;1.71;85.60
19208;BME280;9737;59.466;18.036;2023-02-18T07:56:01;97309.47;;;1.72;85.56
19208;BME280;9737;59.466;18.036;2023-02-18T07:58:32;97309.47;;;1.72;85.66
19208;BME280;9737;59.466;18.036;2023-02-18T08:01:03;97304.38;;;1.70;85.51
19208;BME280;9737;59.466;18.036;2023-02-18T08:03:32;97310.31;;;1.72;85.62
19208;BME280;9737;59.466;18.036;2023-02-18T08:06:01;97321.38;;;1.76;85.67
19208;BME280;9737;59.466;18.036;2023-02-18T08:08:30;97334.22;;;1.79;85.83
19208;BME280;9737;59.466;18.036;2023-02-18T08:11:02;97358.22;;;1.84;85.57
19208;BME280;9737;59.466;18.036;2023-02-18T08:13:46;97369.25;;;1.88;85.84
19208;BME280;9737;59.466;18.036;2023-02-18T08:16:14;97381.28;;;1.90;85.74
19208;BME280;9737;59.466;18.036;2023-02-18T08:18:43;97447.84;;;2.08;85.75
19208;BME280;9737;59.466;18.036;2023-02-18T08:21:11;97486.25;;;2.19;85.53
19208;BME280;9737;59.466;18.036;2023-02-18T08:23:40;97500.88;;;2.22;85.65
19208;BME280;9737;59.466;18.036;2023-02-18T08:26:08;97497.41;;;2.21;85.70
19208;BME280;9737;59.466;18.036;2023-02-18T08:28:36;97453.91;;;2.09;85.88
19208;BME280;9737;59.466;18.036;2023-02-18T08:31:05;97458.19;;;2.10;85.77
19208;BME280;9737;59.466;18.036;2023-02-18T08:33:34;97448.81;;;2.07;85.67
19208;BME280;9737;59.466;18.036;2023-02-18T08:36:06;97441.91;;;2.06;85.73
19208;BME280;9737;59.466;18.036;2023-02-18T08:38:36;97464.28;;;2.10;85.77
19208;BME280;9737;59.466;18.036;2023-02-18T08:41:06;97476.16;;;2.14;85.63
19208;BME280;9737;59.466;18.036;2023-02-18T08:43:35;97476.16;;;2.14;85.64
19208;BME280;9737;59.466;18.036;2023-02-18T08:46:03;97450.72;;;2.05;85.75
19208;BME280;9737;59.466;18.036;2023-02-18T08:48:32;97467.59;;;2.12;85.53
19208;BME280;9737;59.466;18.036;2023-02-18T08:51:10;97496.59;;;2.21;85.61
19208;BME280;9737;59.466;18.036;2023-02-18T08:53:38;97489.81;;;2.18;85.49
19208;BME280;9737;59.466;18.036;2023-02-18T08:56:07;97518.69;;;2.28;85.76
19208;BME280;9737;59.466;18.036;2023-02-18T08:58:35;97538.59;;;2.30;85.98
19208;BME280;9737;59.466;18.036;2023-02-18T09:01:05;97573.44;;;2.42;85.73
19208;BME280;9737;59.466;18.036;2023-02-18T09:03:35;97616.53;;;2.49;85.54
19208;BME280;9737;59.466;18.036;2023-02-18T09:06:04;97629.41;;;2.52;85.60
19208;BME280;9737;59.466;18.036;2023-02-18T09:08:32;97625.94;;;2.52;85.60
19208;BME280;9737;59.466;18.036;2023-02-18T09:11:01;97616.28;;;2.52;85.86
19208;BME280;9737;59.466;18.036;2023-02-18T09:13:30;97612.00;;;2.51;85.78
19208;BME280;9737;59.466;18.036;2023-02-18T09:16:00;97660.13;;;2.61;85.71
19208;BME280;9737;59.466;18.036;2023-02-18T09:18:29;97679.88;;;2.65;85.74
19208;BME280;9737;59.466;18.036;2023-02-18T09:20:59;97734.66;;;2.79;85.90
19208;BME280;9737;59.466;18.036;2023-02-18T09:23:31;97751.78;;;2.84;85.68
19208;BME280;9737;59.466;18.036;2023-02-18T09:25:59;97751.78;;;2.84;85.73
19208;BME280;9737;59.466;18.036;2023-02-18T09:28:27;97752.75;;;2.83;85.74
19208;BME280;9737;59.466;18.036;2023-02-18T09:30:55;97739.63;;;2.83;85.67
19208;BME280;9737;59.466;18.036;2023-02-18T09:33:23;97747.50;;;2.83;85.92
19208;BME280;9737;59.466;18.036;2023-02-18T09:35:51;97709.75;;;2.74;85.75
19208;BME280;9737;59.466;18.036;2023-02-18T09:38:20;97716.66;;;2.75;85.66
19208;BME280;9737;59.466;18.036;2023-02-18T09:40:50;97734.66;;;2.79;85.56
19208;BME280;9737;59.466;18.036;2023-02-18T09:43:23;97740.72;;;2.80;85.59
19208;BME280;9737;59.466;18.036;2023-02-18T09:45:53;97762.72;;;2.89;85.62
19208;BME280;9737;59.466;18.036;2023-02-18T09:48:26;97793.03;;;2.93;85.80
19208;BME280;9737;59.466;18.036;2023-02-18T09:50:55;97811.88;;;2.98;85.86
19208;BME280;9737;59.466;18.036;2023-02-18T09:53:25;97815.19;;;3.00;85.73
19208;BME280;9737;59.466;18.036;2023-02-18T09:55:54;97857.25;;;3.09;85.63
19208;BME280;9737;59.466;18.036;2023-02-18T09:58:27;97893.16;;;3.20;85.48
19208;BME280;9737;59.466;18.036;2023-02-18T10:01:03;97877.75;;;3.16;85.54
19208;BME280;9737;59.466;18.036;2023-02-18T10:03:32;97887.19;;;3.18;85.86
19208;BME280;9737;59.466;18.036;2023-02-18T10:06:03;97932.72;;;3.28;85.86
19208;BME280;9737;59.466;18.036;2023-02-18T10:08:35;97923.19;;;3.27;85.58
19208;BME280;9737;59.466;18.036;2023-02-18T10:11:10;97942.03;;;3.32;86.03
19208;BME280;9737;59.466;18.036;2023-02-18T10:13:40;97919.84;;;3.25;85.64
19208;BME280;9737;59.466;18.036;2023-02-18T10:16:08;97923.19;;;3.27;85.69
19208;BME280;9737;59.466;18.036;2023-02-18T10:18:44;97923.19;;;3.27;85.64
19208;BME280;9737;59.466;18.036;2023-02-18T10:21:17;97911.16;;;3.25;85.64
19208;BME280;9737;59.466;18.036;2023-02-18T10:23:53;97947.16;;;3.34;85.81
19208;BME280;9737;59.466;18.036;2023-02-18T10:26:23;97993.53;;;3.45;85.55
19208;BME280;9737;59.466;18.036;2023-02-18T10:28:52;98014.06;;;3.51;85.83
19208;BME280;9737;59.466;18.036;2023-02-18T10:31:25;98027.66;;;3.56;85.71
19208;BME280;9737;59.466;18.036;2023-02-18T10:33:59;98050.09;;;3.60;85.82
19208;BME280;9737;59.466;18.036;2023-02-18T10:36:35;98069.22;;;3.62;85.40
19208;BME280;9737;59.466;18.036;2023-02-18T10:39:17;98098.06;;;3.73;85.39
19208;BME280;9737;59.466;18.036;2023-02-18T10:41:55;98144.66;;;3.82;85.23
19208;BME280;9737;59.466;18.036;2023-02-18T10:44:31;98144.53;;;3.84;85.43
19208;BME280;9737;59.466;18.036;2023-02-18T10:47:12;98160.88;;;3.87;85.46
19208;BME280;9737;59.466;18.036;2023-02-18T10:49:55;98129.13;;;3.79;85.48
19208;BME280;9737;59.466;18.036;2023-02-18T10:52:26;98113.59;;;3.76;85.83
19208;BME280;9737;59.466;18.036;2023-02-18T10:54:59;98104.97;;;3.74;85.23
19208;BME280;9737;59.466;18.036;2023-02-18T10:57:30;98087.78;;;3.70;85.45
19208;BME280;9737;59.466;18.036;2023-02-18T11:00:02;98071.69;;;3.63;85.39
19208;BME280;9737;59.466;18.036;2023-02-18T11:02:38;98095.69;;;3.70;85.91
19208;BME280;9737;59.466;18.036;2023-02-18T11:05:17;98134.97;;;3.83;85.35
19208;BME280;9737;59.466;18.036;2023-02-18T11:07:47;98262.28;;;4.12;85.10
19208;BME280;9737;59.466;18.036;2023-02-18T11:10:21;98465.88;;;4.65;85.76
19208;BME280;9737;59.466;18.036;2023-02-18T11:12:54;98511.44;;;4.77;85.17
19208;BME280;9737;59.466;18.036;2023-02-18T11:15:25;98529.75;;;4.79;85.87
19208;BME280;9737;59.466;18.036;2023-02-18T11:17:54;98546.03;;;4.84;85.81
19208;BME280;9737;59.466;18.036;2023-02-18T11:20:27;98576.19;;;4.91;85.33
19208;BME280;9737;59.466;18.036;2023-02-18T11:22:58;98642.38;;;5.09;85.01
19208;BME280;9737;59.466;18.036;2023-02-18T11:25:31;98694.97;;;5.21;85.91
19208;BME280;9737;59.466;18.036;2023-02-18T11:28:02;98788.03;;;5.44;85.87
19208;BME280;9737;59.466;18.036;2023-02-18T11:30:34;98786.38;;;5.43;85.34
19208;BME280;9737;59.466;18.036;2023-02-18T11:33:08;98779.53;;;5.41;85.92
19208;BME280;9737;59.466;18.036;2023-02-18T11:35:36;98820.06;;;5.51;85.79
19208;BME280;9737;59.466;18.036;2023-02-18T11:38:17;98738.09;;;5.32;85.26
19208;BME280;9737;59.466;18.036;2023-02-18T11:40:54;98650.16;;;5.10;85.02
19208;BME280;9737;59.466;18.036;2023-02-18T11:43:30;98607.91;;;5.01;85.37
19208;BME280;9737;59.466;18.036;2023-02-18T11:46:16;98595.13;;;4.96;85.07
19208;BME280;9737;59.466;18.036;2023-02-18T11:48:45;98560.63;;;4.88;85.02
19208;BME280;9737;59.466;18.036;2023-02-18T11:51:16;98560.75;;;4.86;85.33
19208;BME280;9737;59.466;18.036;2023-02-18T11:53:56;98569.22;;;4.90;85.56
19208;BME280;9737;59.466;18.036;2023-02-18T11:56:30;98598.47;;;4.98;85.27
19208;BME280;9737;59.466;18.036;2023-02-18T11:58:59;98635.56;;;5.06;85.16
19208;BME280;9737;59.466;18.036;2023-02-18T12:01:42;98731.41;;;5.27;85.24
19208;BME280;9737;59.466;18.036;2023-02-18T12:04:14;98770.91;;;5.39;85.08
19208;BME280;9737;59.466;18.036;2023-02-18T12:06:49;98957.00;;;5.87;85.59
19208;BME280;9737;59.466;18.036;2023-02-18T12:09:26;99099.59;;;6.21;85.52
19208;BME280;9737;59.466;18.036;2023-02-18T12:11:59;99081.59;;;6.15;85.09
19208;BME280;9737;59.466;18.036;2023-02-18T12:14:28;98935.66;;;5.79;85.54
19208;BME280;9737;59.466;18.036;2023-02-18T12:17:13;98909.72;;;5.73;85.59
19208;BME280;9737;59.466;18.036;2023-02-18T12:20:06;99091.06;;;6.17;84.96
19208;BME280;9737;59.466;18.036;2023-02-18T12:22:41;99304.31;;;6.73;85.22
19208;BME280;9737;59.466;18.036;2023-02-18T12:25:24;99426.34;;;7.02;85.34
19208;BME280;9737;59.466;18.036;2023-02-18T12:28:09;99401.22;;;6.96;85.37
19208;BME280;9737;59.466;18.036;2023-02-18T12:30:54;99433.66;;;6.98;84.98
19208;BME280;9737;59.466;18.036;2023-02-18T12:33:33;99288.91;;;6.67;85.08
19208;BME280;9737;59.466;18.036;2023-02-18T12:36:11;99243.97;;;6.56;84.86
19208;BME280;9737;59.466;18.036;2023-02-18T12:38:53;99187.75;;;6.42;85.31
19208;BME280;9737;59.466;18.036;2023-02-18T12:41:30;99150.50;;;6.34;84.97
19208;BME280;9737;59.466;18.036;2023-02-18T12:44:14;99029.00;;;6.01;85.13
19208;BME280;9737;59.466;18.036;2023-02-18T12:46:56;99044.38;;;6.07;85.50
19208;BME280;9737;59.466;18.036;2023-02-18T12:49:47;98880.72;;;5.62;85.17
19208;BME280;9737;59.466;18.036;2023-02-18T12:52:26;98836.50;;;5.54;84.91
19208;BME280;9737;59.466;18.036;2023-02-18T12:55:29;98951.97;;;5.84;85.02
19208;BME280;9737;59.466;18.036;2023-02-18T12:58:10;98958.94;;;5.85;84.95
19208;BME280;9737;59.466;18.036;2023-02-18T13:00:56;98849.44;;;5.57;84.57
19208;BME280;9737;59.466;18.036;2023-02-18T13:06:43;99002.00;;;5.97;84.90
19208;BME280;9737;59.466;18.036;2023-02-18T13:09:24;99148.69;;;6.35;84.55
19208;BME280;9737;59.466;18.036;2023-02-18T13:12:00;99241.19;;;6.57;84.86
19208;BME280;9737;59.466;18.036;2023-02-18T13:14:32;99141.84;;;6.32;84.77
19208;BME280;9737;59.466;18.036;2023-02-18T13:17:04;99073.91;;;6.12;85.14
19208;BME280;9737;59.466;18.036;2023-02-18T13:19:43;99041.72;;;6.07;84.64
19208;BME280;9737;59.466;18.036;2023-02-18T13:22:14;98946.22;;;5.79;85.07
19208;BME280;9737;59.466;18.036;2023-02-18T13:24:45;98911.53;;;5.73;85.18
19208;BME280;9737;59.466;18.036;2023-02-18T13:27:20;98879.63;;;5.65;84.78
19208;BME280;9737;59.466;18.036;2023-02-18T13:30:08;98734.63;;;5.31;84.97
19208;BME280;9737;59.466;18.036;2023-02-18T13:32:52;98762.28;;;5.37;84.64
19208;BME280;9737;59.466;18.036;2023-02-18T13:35:28;98745.03;;;5.33;84.88
19208;BME280;9737;59.466;18.036;2023-02-18T13:38:21;98729.47;;;5.29;84.41
19208;BME280;9737;59.466;18.036;2023-02-18T13:40:54;98759.66;;;5.37;84.26
19208;BME280;9737;59.466;18.036;2023-02-18T13:43:29;98765.66;;;5.39;85.10